Tropical Cyclones
[Index]
Main Index Home Page Stock Weather Photos Extreme Storms Discussion Storm News and Storm Chasing Reports Tropical Cyclones / Hurricanes / Typhoons Weather Data and Links Wild Fires / Bushfires Weather Observation Techniques Weather Picture Catalogue Tornado Pictures and Reports Stock Video Footage and DVDs for sale
Season 1996-1997 Tropical Cyclone CYRIL Track Map
Season 1996-1997 Summaries: [BoM-AU] [JTWC-AU] [JTWC-SIO] [JTWC-SPAC] [JTWC-SH]
<<- Previous TC | JTWC 1996-1997 Season | Next TC ->>

click for intensity scale information  Lat/long Grid: Show Hide

 Date Labels: Show Hide

Joint Typhoon Warning Centre Cyclone Data

Name: CYRIL

19 Nov 1996 00:00 UTC to 01 Dec 1996 06:00 UTC

    date/time    lat    long     hPa   cat  kts
1996-11-19 00    4.0   163.5                  15          
1996-11-19 06    4.1   163.0                  15          
1996-11-19 12    4.1   162.6                  15          
1996-11-19 18    4.1   162.3                  15          
1996-11-20 00    4.1   161.8                  20          
1996-11-20 06    4.1   161.3                  20          
1996-11-20 12    4.1   160.7                  20          
1996-11-20 18    4.2   160.1                  20          
1996-11-21 00    4.3   159.5                  20          
1996-11-21 06    4.5   158.9                  25          
1996-11-21 12    4.9   158.4                  25          
1996-11-21 18    5.7   158.3                  25          
1996-11-22 00    6.7   158.9                  25          
1996-11-22 06    7.9   159.4                  25          
1996-11-22 12    9.1   159.9                  30          
1996-11-22 18   10.6   160.1                  30          
1996-11-23 00   12.1   160.4                  30          
1996-11-23 06   13.4   160.6                  35          
1996-11-23 12   14.6   160.9            1     40          
1996-11-23 18   15.4   160.9            1     45          
1996-11-24 00   16.2   161.1            1     50          
1996-11-24 06   16.8   161.3            1     50          
1996-11-24 12   17.3   161.3            1     50          
1996-11-24 18   17.7   161.2            1     50          
1996-11-25 00   18.0   160.8            1     45          
1996-11-25 06   18.4   160.5            1     45          
1996-11-25 12   19.0   160.8            1     40          
1996-11-25 18   19.5   161.4                  35          
1996-11-26 00   19.8   162.5                  30          
1996-11-26 06   20.0   163.7                  25          
1996-11-26 12   20.3   165.1                  25          
1996-11-26 18   20.7   166.3                  25          
1996-11-27 00   21.0   167.5                  25          
1996-11-27 06   21.1   168.5                  25          
1996-11-27 12   21.3   169.2                  25          
1996-11-27 18   21.6   169.7                  25          
1996-11-28 00   21.9   170.0                  25          
1996-11-28 06   21.9   169.8                  25          
1996-11-28 12   21.9   169.6                  25          
1996-11-28 18   21.9   169.3                  20          
1996-11-29 00   21.9   169.1                  20          
1996-11-29 06   21.9   168.9                  20          
1996-11-29 12   22.0   168.7                  20          
1996-11-29 18   22.2   168.4                  20          
1996-11-30 00   22.4   168.1                  15          
1996-11-30 06   22.7   168.1                  15          
1996-11-30 12   23.0   168.3                  15          
1996-11-30 18   23.3   168.6                  15          
1996-12-01 00   23.9   169.2                  15          
1996-12-01 06   24.9   170.0                  15          
Winds are 1-min average.

Tropical cyclone tracks developed by Michael Bath using data from the Joint Typhoon Warning Centre Best Tracks and Google Maps.


[Australian Severe Weather index] [Copyright Notice] [Email Contacts] [Search This Site] [Privacy Policy]
Document: tropical_cyclone_cyril.htm Updated: 18 September 2016